Flight Track Log - Related Links

Times and Time Zones

All times are in EDT time to prevent confusion due to time zone crossing. See the TYR847 flight status page for this flight to view local times or setup timezone preferences in your user account.

Time Position Orientation Groundspeed Altitude Reporting Facility
EDT Latitude Longitude Course Direction KTS MPH feet Rate Location/Type
Wed 07:18:00 AM 47.8170 16.7252 160° South  Level Estimated
Wed 07:19:00 AM 47.7191 16.7767 161° South  Level Estimated
Wed 07:20:00 AM 47.6213 16.8279 161° South  Level Estimated
Wed 07:21:00 AM 47.5234 16.8790 161° South  Level Estimated
Wed 07:22:00 AM 47.4255 16.9299 161° South  Level Estimated
Wed 07:23:00 AM 47.3276 16.9805 161° South  Level Estimated
Wed 07:24:00 AM 47.2297 17.0310 161° South  Level Estimated
Wed 07:25:00 AM 47.1317 17.0813 161° South  Level Estimated
Wed 07:26:00 AM 47.0337 17.1315 161° South  Level Estimated
Wed 07:27:00 AM 46.9357 17.1814 161° South  Level Estimated
Wed 07:28:00 AM 46.8377 17.2312 161° South  Level Estimated
Wed 07:29:00 AM 46.7397 17.2807 161° South  Level Estimated
Wed 07:30:00 AM 46.6416 17.3301 161° South  Level Estimated
Wed 07:31:00 AM 46.5435 17.3794 161° South  Level Estimated
Wed 07:32:00 AM 46.4454 17.4284 161° South  Level Estimated
Wed 07:33:00 AM 46.3473 17.4772 161° South  Level Estimated
Wed 07:34:00 AM 46.2491 17.5259 161° South  Level Estimated
Wed 07:35:00 AM 46.1509 17.5744 161° South  Level Estimated
Wed 07:36:00 AM 46.0527 17.6228 161° South  Level Estimated
Wed 07:37:00 AM 45.9545 17.6710 161° South  Level Estimated
Wed 07:38:00 AM 45.8563 17.7190 161° South  Level Estimated
Wed 07:39:00 AM 45.7580 17.7668 161° South  Level Estimated
Wed 07:40:00 AM 45.6598 17.8144 161° South  Level Estimated
Wed 07:41:00 AM 45.5615 17.8619 161° South  Level Estimated
Wed 07:42:00 AM 45.4632 17.9093 161° South  Level Estimated
Wed 07:43:00 AM 45.3648 17.9564 161° South  Level Estimated
Wed 07:44:00 AM 45.2665 18.0034 161° South  Level Estimated
Wed 07:45:00 AM 45.1681 18.0503 161° South  Level Estimated
Wed 07:46:00 AM 45.0697 18.0970 161° South  Level Estimated
Wed 07:47:00 AM 44.9713 18.1435 162° South  Level Estimated
Wed 07:48:00 AM 44.8729 18.1898 162° South  Level Estimated
Wed 07:49:00 AM 44.7744 18.2360 162° South  Level Estimated
Wed 07:50:00 AM 44.6760 18.2821 162° South  Level Estimated
Wed 07:51:00 AM 44.5775 18.3279 162° South  Level Estimated
Wed 07:52:00 AM 44.4790 18.3737 162° South  Level Estimated
Wed 07:53:00 AM 44.3805 18.4193 162° South  Level Estimated
Wed 07:54:00 AM 44.2820 18.4647 162° South  Level Estimated
Wed 07:55:00 AM 44.1834 18.5099 162° South  Level Estimated
Wed 07:56:00 AM 44.0848 18.5551 162° South  Level Estimated
Wed 07:57:00 AM 43.9862 18.6000 162° South  Level Estimated
Wed 07:58:00 AM 43.8876 18.6448 162° South  Level Estimated
Wed 07:59:00 AM 43.7890 18.6895 162° South  Level Estimated
Wed 08:00:00 AM 43.6904 18.7340 162° South  Level Estimated
Wed 08:01:00 AM 43.5917 18.7784 162° South  Level Estimated
Wed 08:02:00 AM 43.4930 18.8227 162° South  Level Estimated
Wed 08:03:00 AM 43.3943 18.8667 162° South  Level Estimated
Wed 08:04:00 AM 43.2956 18.9107 162° South  Level Estimated
Wed 08:05:00 AM 43.1969 18.9545 162° South  Level Estimated
Wed 08:06:00 AM 43.0981 18.9981 162° South  Level Estimated
Wed 08:07:00 AM 42.9994 19.0417 162° South  Level Estimated
Wed 08:08:00 AM 42.9006 19.0851 162° South  Level Estimated
Wed 08:09:00 AM 42.8018 19.1283 162° South  Level Estimated
Wed 08:10:00 AM 42.7030 19.1714 162° South  Level Estimated
Wed 08:11:00 AM 42.6042 19.2144 162° South  Level Estimated
Wed 08:12:00 AM 42.5053 19.2572 162° South  Level Estimated
Wed 08:13:00 AM 42.4065 19.2999 162° South  Level Estimated
Wed 08:14:00 AM 42.3076 19.3424 162° South  Level Estimated
Wed 08:15:00 AM 42.2087 19.3849 162° South  Level Estimated
Wed 08:16:00 AM 42.1098 19.4272 162° South  Level Estimated
Wed 08:17:00 AM 42.0109 19.4693 162° South  Level Estimated
Wed 08:18:00 AM 41.9120 19.5114 162° South  Level Estimated
Wed 08:19:00 AM 41.8130 19.5533 162° South  Level Estimated
Wed 08:20:00 AM 41.7140 19.5951 163° South  Level Estimated
Wed 08:21:00 AM 41.6151 19.6367 163° South  Level Estimated
Wed 08:22:00 AM 41.5161 19.6782 163° South  Level Estimated
Wed 08:23:00 AM 41.4170 19.7196 163° South  Level Estimated
Wed 08:24:00 AM 41.4147 19.7206 163° South  Level Estimated
Wed 08:25:00 AM 41.4147 19.7206 North  Level Estimated
Wed 08:26:00 AM 41.4147 19.7206 North  Level Estimated
Wed 08:27:00 AM 41.4147 19.7206 North  Level Estimated
Wed 08:28:00 AM 41.4147 19.7206 North  Level Estimated
Wed 08:29:00 AM 41.4147 19.7206 North  Level Estimated
Wed 08:30:00 AM 41.4147 19.7206 North  Level Estimated
Wed 08:31:00 AM 41.4147 19.7206 North  Level Estimated
Wed 08:32:00 AM 41.4147 19.7206 North  Level Estimated
Wed 08:33:00 AM 41.4147 19.7206 North  Level Estimated
Wed 08:34:00 AM 41.4147 19.7206 North  Level Estimated
Wed 08:35:00 AM 41.4147 19.7206 North  Level Estimated
Wed 08:36:00 AM 41.4147 19.7206 North  Level Estimated
Wed 08:37:00 AM 41.4147 19.7206 North  Level Estimated

Login

Don't have an account? Register now (free) for customized features, flight alerts, and more!